sensor_id;sensor_type;location;lat;lon;timestamp;temperature;humidity
21298;DHT22;10808;48.010;11.326;2022-11-15T00:01:41;6.10;99.90
21298;DHT22;10808;48.010;11.326;2022-11-15T00:04:07;6.10;99.90
21298;DHT22;10808;48.010;11.326;2022-11-15T00:06:34;6.10;99.90
21298;DHT22;10808;48.010;11.326;2022-11-15T00:09:00;6.00;99.90
21298;DHT22;10808;48.010;11.326;2022-11-15T00:11:27;6.00;99.90
21298;DHT22;10808;48.010;11.326;2022-11-15T00:13:57;5.90;99.90
21298;DHT22;10808;48.010;11.326;2022-11-15T00:16:24;5.90;99.90
21298;DHT22;10808;48.010;11.326;2022-11-15T00:18:50;5.90;99.90
21298;DHT22;10808;48.010;11.326;2022-11-15T00:21:17;5.90;99.90
21298;DHT22;10808;48.010;11.326;2022-11-15T00:23:43;5.90;99.90
21298;DHT22;10808;48.010;11.326;2022-11-15T00:26:12;5.90;99.90
21298;DHT22;10808;48.010;11.326;2022-11-15T00:28:38;6.00;99.90
21298;DHT22;10808;48.010;11.326;2022-11-15T00:31:06;5.90;99.90
21298;DHT22;10808;48.010;11.326;2022-11-15T00:33:33;5.90;99.90
21298;DHT22;10808;48.010;11.326;2022-11-15T00:36:01;5.90;99.90
21298;DHT22;10808;48.010;11.326;2022-11-15T00:38:32;5.90;99.90
21298;DHT22;10808;48.010;11.326;2022-11-15T00:41:00;5.90;99.90
21298;DHT22;10808;48.010;11.326;2022-11-15T00:43:26;5.90;99.90
21298;DHT22;10808;48.010;11.326;2022-11-15T00:45:52;5.90;99.90
21298;DHT22;10808;48.010;11.326;2022-11-15T00:48:19;5.80;99.90
21298;DHT22;10808;48.010;11.326;2022-11-15T00:50:45;5.80;99.90
21298;DHT22;10808;48.010;11.326;2022-11-15T00:53:11;5.70;99.90
21298;DHT22;10808;48.010;11.326;2022-11-15T00:55:38;5.70;99.90
21298;DHT22;10808;48.010;11.326;2022-11-15T00:58:04;5.70;99.90
21298;DHT22;10808;48.010;11.326;2022-11-15T01:00:30;5.70;99.90
21298;DHT22;10808;48.010;11.326;2022-11-15T01:02:56;5.80;99.90
21298;DHT22;10808;48.010;11.326;2022-11-15T01:05:22;5.80;99.90
21298;DHT22;10808;48.010;11.326;2022-11-15T01:07:53;5.80;99.90
21298;DHT22;10808;48.010;11.326;2022-11-15T01:10:19;5.80;99.90
21298;DHT22;10808;48.010;11.326;2022-11-15T01:12:45;5.80;99.90
21298;DHT22;10808;48.010;11.326;2022-11-15T01:15:11;5.80;99.90
21298;DHT22;10808;48.010;11.326;2022-11-15T01:17:38;5.80;99.90
21298;DHT22;10808;48.010;11.326;2022-11-15T01:20:05;5.80;99.90
21298;DHT22;10808;48.010;11.326;2022-11-15T01:22:31;5.80;99.90
21298;DHT22;10808;48.010;11.326;2022-11-15T01:24:57;5.70;99.90
21298;DHT22;10808;48.010;11.326;2022-11-15T01:27:23;5.70;99.90
21298;DHT22;10808;48.010;11.326;2022-11-15T01:29:50;5.60;99.90
21298;DHT22;10808;48.010;11.326;2022-11-15T01:32:16;5.50;99.90
21298;DHT22;10808;48.010;11.326;2022-11-15T01:34:43;5.50;99.90
21298;DHT22;10808;48.010;11.326;2022-11-15T01:37:09;5.40;99.90
21298;DHT22;10808;48.010;11.326;2022-11-15T01:39:35;5.40;99.90
21298;DHT22;10808;48.010;11.326;2022-11-15T01:42:02;5.40;99.90
21298;DHT22;10808;48.010;11.326;2022-11-15T01:46:58;5.50;99.90
21298;DHT22;10808;48.010;11.326;2022-11-15T01:49:27;5.50;99.90
21298;DHT22;10808;48.010;11.326;2022-11-15T01:51:54;5.50;99.90
21298;DHT22;10808;48.010;11.326;2022-11-15T01:54:21;5.50;99.90
21298;DHT22;10808;48.010;11.326;2022-11-15T01:56:54;5.50;99.90
21298;DHT22;10808;48.010;11.326;2022-11-15T01:59:23;5.50;99.90
21298;DHT22;10808;48.010;11.326;2022-11-15T02:01:49;5.50;99.90
21298;DHT22;10808;48.010;11.326;2022-11-15T02:06:48;5.40;99.90
21298;DHT22;10808;48.010;11.326;2022-11-15T02:09:15;5.40;99.90
21298;DHT22;10808;48.010;11.326;2022-11-15T02:11:42;5.40;99.90
21298;DHT22;10808;48.010;11.326;2022-11-15T02:14:10;5.40;99.90
21298;DHT22;10808;48.010;11.326;2022-11-15T02:16:59;5.30;99.90
21298;DHT22;10808;48.010;11.326;2022-11-15T02:30:55;5.20;99.90
21298;DHT22;10808;48.010;11.326;2022-11-15T02:40:05;5.20;99.90
21298;DHT22;10808;48.010;11.326;2022-11-15T02:42:14;5.20;99.90
21298;DHT22;10808;48.010;11.326;2022-11-15T02:45:05;5.10;99.90
21298;DHT22;10808;48.010;11.326;2022-11-15T02:47:37;5.20;99.90
21298;DHT22;10808;48.010;11.326;2022-11-15T02:50:10;5.10;99.90
21298;DHT22;10808;48.010;11.326;2022-11-15T02:52:37;5.10;99.90
21298;DHT22;10808;48.010;11.326;2022-11-15T02:55:04;5.10;99.90
21298;DHT22;10808;48.010;11.326;2022-11-15T02:57:39;5.10;99.90
21298;DHT22;10808;48.010;11.326;2022-11-15T03:00:13;5.10;99.90
21298;DHT22;10808;48.010;11.326;2022-11-15T03:05:41;5.10;99.90
21298;DHT22;10808;48.010;11.326;2022-11-15T03:11:23;5.00;99.90
21298;DHT22;10808;48.010;11.326;2022-11-15T03:14:10;5.00;99.90
21298;DHT22;10808;48.010;11.326;2022-11-15T03:16:43;5.00;99.90
21298;DHT22;10808;48.010;11.326;2022-11-15T03:19:17;5.00;99.90
21298;DHT22;10808;48.010;11.326;2022-11-15T03:21:45;4.90;99.90
21298;DHT22;10808;48.010;11.326;2022-11-15T03:24:14;4.90;99.90
21298;DHT22;10808;48.010;11.326;2022-11-15T03:26:43;4.90;99.90
21298;DHT22;10808;48.010;11.326;2022-11-15T03:29:23;4.90;99.90
21298;DHT22;10808;48.010;11.326;2022-11-15T03:31:56;4.90;99.90
21298;DHT22;10808;48.010;11.326;2022-11-15T03:34:32;4.90;99.90
21298;DHT22;10808;48.010;11.326;2022-11-15T03:37:00;4.80;99.90
21298;DHT22;10808;48.010;11.326;2022-11-15T03:39:28;4.80;99.90
21298;DHT22;10808;48.010;11.326;2022-11-15T03:42:38;4.80;99.90
21298;DHT22;10808;48.010;11.326;2022-11-15T03:45:27;4.80;99.90
21298;DHT22;10808;48.010;11.326;2022-11-15T03:48:03;4.80;99.90
21298;DHT22;10808;48.010;11.326;2022-11-15T03:50:30;4.80;99.90
21298;DHT22;10808;48.010;11.326;2022-11-15T03:52:59;4.80;99.90
21298;DHT22;10808;48.010;11.326;2022-11-15T03:55:25;4.80;99.90
21298;DHT22;10808;48.010;11.326;2022-11-15T03:57:53;4.80;99.90
21298;DHT22;10808;48.010;11.326;2022-11-15T04:00:21;4.70;99.90
21298;DHT22;10808;48.010;11.326;2022-11-15T04:02:47;4.80;99.90
21298;DHT22;10808;48.010;11.326;2022-11-15T04:05:14;4.80;99.90
21298;DHT22;10808;48.010;11.326;2022-11-15T04:07:40;4.80;99.90
21298;DHT22;10808;48.010;11.326;2022-11-15T04:10:06;4.80;99.90
21298;DHT22;10808;48.010;11.326;2022-11-15T04:12:39;4.80;99.90
21298;DHT22;10808;48.010;11.326;2022-11-15T04:15:10;4.80;99.90
21298;DHT22;10808;48.010;11.326;2022-11-15T04:17:41;4.80;99.90
21298;DHT22;10808;48.010;11.326;2022-11-15T04:20:11;4.80;99.90
21298;DHT22;10808;48.010;11.326;2022-11-15T04:22:57;4.80;99.90
21298;DHT22;10808;48.010;11.326;2022-11-15T04:25:43;4.80;99.90
21298;DHT22;10808;48.010;11.326;2022-11-15T04:28:10;4.80;99.90
21298;DHT22;10808;48.010;11.326;2022-11-15T04:30:37;4.80;99.90
21298;DHT22;10808;48.010;11.326;2022-11-15T04:33:04;4.80;99.90
21298;DHT22;10808;48.010;11.326;2022-11-15T04:35:30;4.80;99.90
21298;DHT22;10808;48.010;11.326;2022-11-15T04:37:57;4.80;99.90
21298;DHT22;10808;48.010;11.326;2022-11-15T04:40:23;4.70;99.90
21298;DHT22;10808;48.010;11.326;2022-11-15T04:42:49;4.70;99.90
21298;DHT22;10808;48.010;11.326;2022-11-15T04:45:15;4.70;99.90
21298;DHT22;10808;48.010;11.326;2022-11-15T04:47:44;4.70;99.90
21298;DHT22;10808;48.010;11.326;2022-11-15T04:50:12;4.60;99.90
21298;DHT22;10808;48.010;11.326;2022-11-15T04:52:50;4.60;99.90
21298;DHT22;10808;48.010;11.326;2022-11-15T04:55:17;4.60;99.90
21298;DHT22;10808;48.010;11.326;2022-11-15T04:57:43;4.60;99.90
21298;DHT22;10808;48.010;11.326;2022-11-15T05:00:15;4.60;99.90
21298;DHT22;10808;48.010;11.326;2022-11-15T05:02:42;4.60;99.90
21298;DHT22;10808;48.010;11.326;2022-11-15T05:05:26;4.60;99.90
21298;DHT22;10808;48.010;11.326;2022-11-15T05:07:52;4.50;99.90
21298;DHT22;10808;48.010;11.326;2022-11-15T05:10:18;4.50;99.90
21298;DHT22;10808;48.010;11.326;2022-11-15T05:12:46;4.50;99.90
21298;DHT22;10808;48.010;11.326;2022-11-15T05:15:12;4.50;99.90
21298;DHT22;10808;48.010;11.326;2022-11-15T05:17:38;4.50;99.90
21298;DHT22;10808;48.010;11.326;2022-11-15T05:20:05;4.40;99.90
21298;DHT22;10808;48.010;11.326;2022-11-15T05:22:31;4.40;99.90
21298;DHT22;10808;48.010;11.326;2022-11-15T05:24:57;4.40;99.90
21298;DHT22;10808;48.010;11.326;2022-11-15T05:27:23;4.40;99.90
21298;DHT22;10808;48.010;11.326;2022-11-15T05:29:49;4.40;99.90
21298;DHT22;10808;48.010;11.326;2022-11-15T05:32:16;4.40;99.90
21298;DHT22;10808;48.010;11.326;2022-11-15T05:34:42;4.40;99.90
21298;DHT22;10808;48.010;11.326;2022-11-15T05:37:09;4.40;99.90
21298;DHT22;10808;48.010;11.326;2022-11-15T05:39:35;4.40;99.90
21298;DHT22;10808;48.010;11.326;2022-11-15T05:42:13;4.40;99.90
21298;DHT22;10808;48.010;11.326;2022-11-15T05:44:44;4.40;99.90
21298;DHT22;10808;48.010;11.326;2022-11-15T05:47:15;4.40;99.90
21298;DHT22;10808;48.010;11.326;2022-11-15T05:49:43;4.40;99.90
21298;DHT22;10808;48.010;11.326;2022-11-15T05:52:12;4.30;99.90
21298;DHT22;10808;48.010;11.326;2022-11-15T05:54:39;4.30;99.90
21298;DHT22;10808;48.010;11.326;2022-11-15T05:57:06;4.30;99.90
21298;DHT22;10808;48.010;11.326;2022-11-15T05:59:33;4.30;99.90
21298;DHT22;10808;48.010;11.326;2022-11-15T06:02:00;4.30;99.90
21298;DHT22;10808;48.010;11.326;2022-11-15T06:04:27;4.30;99.90
21298;DHT22;10808;48.010;11.326;2022-11-15T06:06:53;4.30;99.90
21298;DHT22;10808;48.010;11.326;2022-11-15T06:09:19;4.30;99.90
21298;DHT22;10808;48.010;11.326;2022-11-15T06:11:45;4.20;99.90
21298;DHT22;10808;48.010;11.326;2022-11-15T06:14:11;4.20;99.90
21298;DHT22;10808;48.010;11.326;2022-11-15T06:16:37;4.20;99.90
21298;DHT22;10808;48.010;11.326;2022-11-15T06:19:03;4.20;99.90
21298;DHT22;10808;48.010;11.326;2022-11-15T06:21:32;4.20;99.90
21298;DHT22;10808;48.010;11.326;2022-11-15T06:23:58;4.20;99.90
21298;DHT22;10808;48.010;11.326;2022-11-15T06:26:24;4.20;99.90
21298;DHT22;10808;48.010;11.326;2022-11-15T06:28:50;4.20;99.90
21298;DHT22;10808;48.010;11.326;2022-11-15T06:31:16;4.20;99.90
21298;DHT22;10808;48.010;11.326;2022-11-15T06:33:42;4.20;99.90
21298;DHT22;10808;48.010;11.326;2022-11-15T06:36:11;4.20;99.90
21298;DHT22;10808;48.010;11.326;2022-11-15T06:38:39;4.20;99.90
21298;DHT22;10808;48.010;11.326;2022-11-15T06:41:08;4.20;99.90
21298;DHT22;10808;48.010;11.326;2022-11-15T06:43:34;4.20;99.90
21298;DHT22;10808;48.010;11.326;2022-11-15T06:46:02;4.20;99.90
21298;DHT22;10808;48.010;11.326;2022-11-15T06:48:29;4.10;99.90
21298;DHT22;10808;48.010;11.326;2022-11-15T06:50:57;4.10;99.90
21298;DHT22;10808;48.010;11.326;2022-11-15T06:53:24;4.20;99.90
21298;DHT22;10808;48.010;11.326;2022-11-15T06:55:50;4.20;99.90
21298;DHT22;10808;48.010;11.326;2022-11-15T06:58:16;4.20;99.90
21298;DHT22;10808;48.010;11.326;2022-11-15T07:00:43;4.30;99.90
21298;DHT22;10808;48.010;11.326;2022-11-15T07:03:09;4.30;99.90
21298;DHT22;10808;48.010;11.326;2022-11-15T07:05:36;4.30;99.90
21298;DHT22;10808;48.010;11.326;2022-11-15T07:08:02;4.30;99.90
21298;DHT22;10808;48.010;11.326;2022-11-15T07:10:29;4.30;99.90
21298;DHT22;10808;48.010;11.326;2022-11-15T07:12:55;4.30;99.90
21298;DHT22;10808;48.010;11.326;2022-11-15T07:15:24;4.30;99.90
21298;DHT22;10808;48.010;11.326;2022-11-15T07:17:50;4.30;99.90
21298;DHT22;10808;48.010;11.326;2022-11-15T07:20:17;4.30;99.90
21298;DHT22;10808;48.010;11.326;2022-11-15T07:22:43;4.30;99.90
21298;DHT22;10808;48.010;11.326;2022-11-15T07:25:11;4.30;99.90
21298;DHT22;10808;48.010;11.326;2022-11-15T07:27:37;4.30;99.90
21298;DHT22;10808;48.010;11.326;2022-11-15T07:30:04;4.40;99.90
21298;DHT22;10808;48.010;11.326;2022-11-15T07:32:31;4.40;99.90
21298;DHT22;10808;48.010;11.326;2022-11-15T07:34:57;4.40;99.90
21298;DHT22;10808;48.010;11.326;2022-11-15T07:37:23;4.50;99.90
21298;DHT22;10808;48.010;11.326;2022-11-15T07:39:49;4.60;99.90
21298;DHT22;10808;48.010;11.326;2022-11-15T07:42:15;4.60;99.90
21298;DHT22;10808;48.010;11.326;2022-11-15T07:45:00;4.70;99.90
21298;DHT22;10808;48.010;11.326;2022-11-15T07:47:28;4.80;99.90
21298;DHT22;10808;48.010;11.326;2022-11-15T07:49:54;4.80;99.90
21298;DHT22;10808;48.010;11.326;2022-11-15T07:52:30;4.80;99.90
21298;DHT22;10808;48.010;11.326;2022-11-15T07:54:56;4.90;99.90
21298;DHT22;10808;48.010;11.326;2022-11-15T07:57:22;4.90;99.90
21298;DHT22;10808;48.010;11.326;2022-11-15T07:59:48;5.00;99.90
21298;DHT22;10808;48.010;11.326;2022-11-15T08:02:14;5.00;99.90
21298;DHT22;10808;48.010;11.326;2022-11-15T08:04:43;5.10;99.90
21298;DHT22;10808;48.010;11.326;2022-11-15T08:07:09;5.10;99.90
21298;DHT22;10808;48.010;11.326;2022-11-15T08:09:35;5.20;99.90
21298;DHT22;10808;48.010;11.326;2022-11-15T08:12:01;5.20;99.90
21298;DHT22;10808;48.010;11.326;2022-11-15T08:14:27;5.30;99.90
21298;DHT22;10808;48.010;11.326;2022-11-15T08:16:57;5.30;99.90
21298;DHT22;10808;48.010;11.326;2022-11-15T08:19:23;5.40;99.90
21298;DHT22;10808;48.010;11.326;2022-11-15T08:21:49;5.40;99.90
21298;DHT22;10808;48.010;11.326;2022-11-15T08:24:15;5.50;99.90
21298;DHT22;10808;48.010;11.326;2022-11-15T08:26:41;5.60;99.90
21298;DHT22;10808;48.010;11.326;2022-11-15T08:29:07;5.60;99.90
21298;DHT22;10808;48.010;11.326;2022-11-15T08:31:35;5.70;99.90
21298;DHT22;10808;48.010;11.326;2022-11-15T08:34:05;5.80;99.90
21298;DHT22;10808;48.010;11.326;2022-11-15T08:36:32;5.90;99.90
21298;DHT22;10808;48.010;11.326;2022-11-15T08:38:58;6.00;99.90
21298;DHT22;10808;48.010;11.326;2022-11-15T08:41:31;6.10;99.90
21298;DHT22;10808;48.010;11.326;2022-11-15T08:43:57;6.20;99.90
21298;DHT22;10808;48.010;11.326;2022-11-15T08:46:23;6.20;99.90
21298;DHT22;10808;48.010;11.326;2022-11-15T08:48:49;6.30;99.90
21298;DHT22;10808;48.010;11.326;2022-11-15T08:51:15;6.30;99.90
21298;DHT22;10808;48.010;11.326;2022-11-15T08:53:42;6.30;99.90
21298;DHT22;10808;48.010;11.326;2022-11-15T08:56:10;6.30;99.90
21298;DHT22;10808;48.010;11.326;2022-11-15T08:58:36;6.30;99.90
21298;DHT22;10808;48.010;11.326;2022-11-15T09:01:03;6.40;99.90
21298;DHT22;10808;48.010;11.326;2022-11-15T09:03:30;6.60;99.90
21298;DHT22;10808;48.010;11.326;2022-11-15T09:06:00;6.60;99.90
21298;DHT22;10808;48.010;11.326;2022-11-15T09:08:29;6.80;99.90
21298;DHT22;10808;48.010;11.326;2022-11-15T09:10:56;6.90;99.90
21298;DHT22;10808;48.010;11.326;2022-11-15T09:13:22;7.00;99.90
21298;DHT22;10808;48.010;11.326;2022-11-15T09:15:48;7.20;99.90
21298;DHT22;10808;48.010;11.326;2022-11-15T09:18:14;7.40;99.90
21298;DHT22;10808;48.010;11.326;2022-11-15T09:20:40;7.60;99.90
21298;DHT22;10808;48.010;11.326;2022-11-15T09:23:06;7.70;99.90
21298;DHT22;10808;48.010;11.326;2022-11-15T09:25:33;7.90;99.90
21298;DHT22;10808;48.010;11.326;2022-11-15T09:27:59;8.10;99.90
21298;DHT22;10808;48.010;11.326;2022-11-15T09:30:25;8.20;99.90
21298;DHT22;10808;48.010;11.326;2022-11-15T09:32:51;8.50;99.90
21298;DHT22;10808;48.010;11.326;2022-11-15T09:35:17;8.70;99.90
21298;DHT22;10808;48.010;11.326;2022-11-15T09:37:43;8.80;99.90
21298;DHT22;10808;48.010;11.326;2022-11-15T09:40:14;9.00;99.90
21298;DHT22;10808;48.010;11.326;2022-11-15T09:43:02;9.20;99.90
21298;DHT22;10808;48.010;11.326;2022-11-15T09:45:52;9.40;99.90
21298;DHT22;10808;48.010;11.326;2022-11-15T09:51:00;9.80;99.90
21298;DHT22;10808;48.010;11.326;2022-11-15T09:53:39;10.00;99.90
21298;DHT22;10808;48.010;11.326;2022-11-15T09:56:28;10.20;99.90
21298;DHT22;10808;48.010;11.326;2022-11-15T09:59:22;10.50;99.90
21298;DHT22;10808;48.010;11.326;2022-11-15T10:04:38;11.00;99.90
21298;DHT22;10808;48.010;11.326;2022-11-15T10:10:00;11.30;99.90
21298;DHT22;10808;48.010;11.326;2022-11-15T10:12:30;11.50;99.90
21298;DHT22;10808;48.010;11.326;2022-11-15T10:15:09;11.60;99.90
21298;DHT22;10808;48.010;11.326;2022-11-15T10:17:52;11.90;99.90
21298;DHT22;10808;48.010;11.326;2022-11-15T10:20:33;12.20;99.90
21298;DHT22;10808;48.010;11.326;2022-11-15T10:23:07;12.50;99.90
21298;DHT22;10808;48.010;11.326;2022-11-15T10:25:36;12.80;99.90
21298;DHT22;10808;48.010;11.326;2022-11-15T10:30:43;13.40;99.90
21298;DHT22;10808;48.010;11.326;2022-11-15T10:33:30;13.50;99.90
21298;DHT22;10808;48.010;11.326;2022-11-15T10:46:48;14.20;99.50
21298;DHT22;10808;48.010;11.326;2022-11-15T10:49:33;14.30;99.90
21298;DHT22;10808;48.010;11.326;2022-11-15T10:52:16;14.20;99.50
21298;DHT22;10808;48.010;11.326;2022-11-15T10:54:46;14.20;99.10
21298;DHT22;10808;48.010;11.326;2022-11-15T10:57:22;14.10;99.10
21298;DHT22;10808;48.010;11.326;2022-11-15T10:59:57;13.90;99.00
21298;DHT22;10808;48.010;11.326;2022-11-15T11:02:36;13.90;99.40
21298;DHT22;10808;48.010;11.326;2022-11-15T11:10:58;13.80;99.10
21298;DHT22;10808;48.010;11.326;2022-11-15T11:13:33;13.80;99.50
21298;DHT22;10808;48.010;11.326;2022-11-15T11:16:26;13.80;99.60
21298;DHT22;10808;48.010;11.326;2022-11-15T11:19:10;13.80;99.50
21298;DHT22;10808;48.010;11.326;2022-11-15T11:30:13;13.80;99.30
21298;DHT22;10808;48.010;11.326;2022-11-15T11:33:48;13.70;99.30
21298;DHT22;10808;48.010;11.326;2022-11-15T11:43:40;13.70;99.30
21298;DHT22;10808;48.010;11.326;2022-11-15T11:52:31;13.70;99.10
21298;DHT22;10808;48.010;11.326;2022-11-15T11:55:16;13.70;98.90
21298;DHT22;10808;48.010;11.326;2022-11-15T11:57:53;13.70;98.80
21298;DHT22;10808;48.010;11.326;2022-11-15T12:00:24;13.70;99.30
21298;DHT22;10808;48.010;11.326;2022-11-15T12:05:49;13.80;99.40
21298;DHT22;10808;48.010;11.326;2022-11-15T12:08:43;13.80;99.30
21298;DHT22;10808;48.010;11.326;2022-11-15T12:11:23;13.80;99.70
21298;DHT22;10808;48.010;11.326;2022-11-15T12:13:57;13.80;99.90
21298;DHT22;10808;48.010;11.326;2022-11-15T12:16:29;13.80;99.40
21298;DHT22;10808;48.010;11.326;2022-11-15T12:19:00;13.70;99.30
21298;DHT22;10808;48.010;11.326;2022-11-15T12:21:49;13.70;99.50
21298;DHT22;10808;48.010;11.326;2022-11-15T12:24:24;13.80;99.30
21298;DHT22;10808;48.010;11.326;2022-11-15T12:26:59;13.80;99.20
21298;DHT22;10808;48.010;11.326;2022-11-15T12:29:38;13.80;99.80
21298;DHT22;10808;48.010;11.326;2022-11-15T12:32:14;13.80;99.80
21298;DHT22;10808;48.010;11.326;2022-11-15T12:34:45;13.90;99.90
21298;DHT22;10808;48.010;11.326;2022-11-15T12:45:43;13.90;99.10
21298;DHT22;10808;48.010;11.326;2022-11-15T12:53:30;13.90;99.40
21298;DHT22;10808;48.010;11.326;2022-11-15T13:19:41;14.10;98.30
21298;DHT22;10808;48.010;11.326;2022-11-15T13:22:11;14.20;98.80
21298;DHT22;10808;48.010;11.326;2022-11-15T13:24:56;14.20;98.80
21298;DHT22;10808;48.010;11.326;2022-11-15T13:27:22;14.20;98.10
21298;DHT22;10808;48.010;11.326;2022-11-15T13:29:49;14.20;98.70
21298;DHT22;10808;48.010;11.326;2022-11-15T13:32:16;14.20;98.10
21298;DHT22;10808;48.010;11.326;2022-11-15T13:34:47;14.30;99.00
21298;DHT22;10808;48.010;11.326;2022-11-15T13:39:50;14.30;98.50
21298;DHT22;10808;48.010;11.326;2022-11-15T13:42:18;14.30;98.70
21298;DHT22;10808;48.010;11.326;2022-11-15T13:45:01;14.40;98.60
21298;DHT22;10808;48.010;11.326;2022-11-15T13:47:28;14.40;98.80
21298;DHT22;10808;48.010;11.326;2022-11-15T13:49:59;14.50;99.00
21298;DHT22;10808;48.010;11.326;2022-11-15T13:52:32;14.50;98.80
21298;DHT22;10808;48.010;11.326;2022-11-15T13:55:02;14.60;98.70
21298;DHT22;10808;48.010;11.326;2022-11-15T13:57:41;14.70;99.10
21298;DHT22;10808;48.010;11.326;2022-11-15T14:00:32;14.70;98.60
21298;DHT22;10808;48.010;11.326;2022-11-15T14:03:21;14.70;99.60
21298;DHT22;10808;48.010;11.326;2022-11-15T14:06:04;14.70;99.30
21298;DHT22;10808;48.010;11.326;2022-11-15T14:08:33;14.60;98.70
21298;DHT22;10808;48.010;11.326;2022-11-15T14:11:15;14.60;99.00
21298;DHT22;10808;48.010;11.326;2022-11-15T14:16:47;14.50;98.50
21298;DHT22;10808;48.010;11.326;2022-11-15T14:19:34;14.50;98.80
21298;DHT22;10808;48.010;11.326;2022-11-15T14:22:19;14.50;99.60
21298;DHT22;10808;48.010;11.326;2022-11-15T14:25:05;14.50;99.90
21298;DHT22;10808;48.010;11.326;2022-11-15T14:27:33;14.40;99.60
21298;DHT22;10808;48.010;11.326;2022-11-15T14:29:59;14.30;99.20
21298;DHT22;10808;48.010;11.326;2022-11-15T14:32:46;14.20;99.80
21298;DHT22;10808;48.010;11.326;2022-11-15T14:35:17;14.00;99.90
21298;DHT22;10808;48.010;11.326;2022-11-15T14:37:44;13.90;99.90
21298;DHT22;10808;48.010;11.326;2022-11-15T14:40:14;13.80;99.90
21298;DHT22;10808;48.010;11.326;2022-11-15T14:42:41;13.70;99.90
21298;DHT22;10808;48.010;11.326;2022-11-15T14:45:13;13.60;99.90
21298;DHT22;10808;48.010;11.326;2022-11-15T14:47:41;13.50;99.90
21298;DHT22;10808;48.010;11.326;2022-11-15T14:50:12;13.40;99.90
21298;DHT22;10808;48.010;11.326;2022-11-15T14:52:39;13.40;99.90
21298;DHT22;10808;48.010;11.326;2022-11-15T14:57:40;13.20;99.90
21298;DHT22;10808;48.010;11.326;2022-11-15T15:00:07;13.10;99.90
21298;DHT22;10808;48.010;11.326;2022-11-15T15:02:34;13.00;99.90
21298;DHT22;10808;48.010;11.326;2022-11-15T15:05:00;12.90;99.90
21298;DHT22;10808;48.010;11.326;2022-11-15T15:07:28;12.90;99.90
21298;DHT22;10808;48.010;11.326;2022-11-15T15:09:54;12.70;99.90
21298;DHT22;10808;48.010;11.326;2022-11-15T15:12:22;12.70;99.90
21298;DHT22;10808;48.010;11.326;2022-11-15T15:14:50;12.60;99.90
21298;DHT22;10808;48.010;11.326;2022-11-15T15:17:16;12.60;99.90
21298;DHT22;10808;48.010;11.326;2022-11-15T15:19:43;12.50;99.90
21298;DHT22;10808;48.010;11.326;2022-11-15T15:22:14;12.50;99.90
21298;DHT22;10808;48.010;11.326;2022-11-15T15:24:40;12.50;99.90
21298;DHT22;10808;48.010;11.326;2022-11-15T15:27:07;12.40;99.90
21298;DHT22;10808;48.010;11.326;2022-11-15T15:29:33;12.40;99.90
21298;DHT22;10808;48.010;11.326;2022-11-15T15:31:59;12.40;99.90
21298;DHT22;10808;48.010;11.326;2022-11-15T15:34:25;12.40;99.90
21298;DHT22;10808;48.010;11.326;2022-11-15T15:37:25;12.30;99.90
21298;DHT22;10808;48.010;11.326;2022-11-15T15:39:56;12.30;99.90
21298;DHT22;10808;48.010;11.326;2022-11-15T15:42:23;12.30;99.90
21298;DHT22;10808;48.010;11.326;2022-11-15T15:44:49;12.20;99.90
21298;DHT22;10808;48.010;11.326;2022-11-15T15:47:19;12.20;99.90
21298;DHT22;10808;48.010;11.326;2022-11-15T15:49:46;12.10;99.90
21298;DHT22;10808;48.010;11.326;2022-11-15T15:52:12;12.10;99.90
21298;DHT22;10808;48.010;11.326;2022-11-15T15:54:38;12.10;99.90
21298;DHT22;10808;48.010;11.326;2022-11-15T15:57:06;12.00;99.90
21298;DHT22;10808;48.010;11.326;2022-11-15T15:59:32;12.00;99.90
21298;DHT22;10808;48.010;11.326;2022-11-15T16:01:58;11.90;99.90
21298;DHT22;10808;48.010;11.326;2022-11-15T16:04:25;11.90;99.90
21298;DHT22;10808;48.010;11.326;2022-11-15T16:06:51;11.90;99.90
21298;DHT22;10808;48.010;11.326;2022-11-15T16:09:20;11.80;99.90
21298;DHT22;10808;48.010;11.326;2022-11-15T16:12:09;11.80;99.90
21298;DHT22;10808;48.010;11.326;2022-11-15T16:14:35;11.80;99.90
21298;DHT22;10808;48.010;11.326;2022-11-15T16:17:01;11.70;99.90
21298;DHT22;10808;48.010;11.326;2022-11-15T16:19:28;11.70;99.90
21298;DHT22;10808;48.010;11.326;2022-11-15T16:21:54;11.70;99.90
21298;DHT22;10808;48.010;11.326;2022-11-15T16:24:20;11.60;99.90
21298;DHT22;10808;48.010;11.326;2022-11-15T16:26:47;11.60;99.90
21298;DHT22;10808;48.010;11.326;2022-11-15T16:29:14;11.60;99.90
21298;DHT22;10808;48.010;11.326;2022-11-15T16:31:40;11.50;99.90
21298;DHT22;10808;48.010;11.326;2022-11-15T16:34:06;11.50;99.90
21298;DHT22;10808;48.010;11.326;2022-11-15T16:36:34;11.40;99.90
21298;DHT22;10808;48.010;11.326;2022-11-15T16:39:00;11.40;99.90
21298;DHT22;10808;48.010;11.326;2022-11-15T16:41:29;11.40;99.90
21298;DHT22;10808;48.010;11.326;2022-11-15T16:43:56;11.40;99.90
21298;DHT22;10808;48.010;11.326;2022-11-15T16:46:26;11.40;99.90
21298;DHT22;10808;48.010;11.326;2022-11-15T16:48:54;11.30;99.90
21298;DHT22;10808;48.010;11.326;2022-11-15T16:51:20;11.20;99.90
21298;DHT22;10808;48.010;11.326;2022-11-15T16:53:46;11.20;99.90
21298;DHT22;10808;48.010;11.326;2022-11-15T16:58:45;11.10;99.90
21298;DHT22;10808;48.010;11.326;2022-11-15T17:01:21;11.00;99.90
21298;DHT22;10808;48.010;11.326;2022-11-15T17:03:48;11.00;99.90
21298;DHT22;10808;48.010;11.326;2022-11-15T17:06:14;10.90;99.90
21298;DHT22;10808;48.010;11.326;2022-11-15T17:08:45;10.90;99.90
21298;DHT22;10808;48.010;11.326;2022-11-15T17:11:15;10.80;99.90
21298;DHT22;10808;48.010;11.326;2022-11-15T17:13:41;10.80;99.90
21298;DHT22;10808;48.010;11.326;2022-11-15T17:16:10;10.80;99.90
21298;DHT22;10808;48.010;11.326;2022-11-15T17:18:37;10.70;99.90
21298;DHT22;10808;48.010;11.326;2022-11-15T17:21:09;10.70;99.90
21298;DHT22;10808;48.010;11.326;2022-11-15T17:23:37;10.60;99.90
21298;DHT22;10808;48.010;11.326;2022-11-15T17:26:04;10.60;99.90
21298;DHT22;10808;48.010;11.326;2022-11-15T17:28:31;10.50;99.90
21298;DHT22;10808;48.010;11.326;2022-11-15T17:30:58;10.50;99.90
21298;DHT22;10808;48.010;11.326;2022-11-15T17:33:25;10.40;99.90
21298;DHT22;10808;48.010;11.326;2022-11-15T17:35:58;10.40;99.90
21298;DHT22;10808;48.010;11.326;2022-11-15T17:38:25;10.30;99.90
21298;DHT22;10808;48.010;11.326;2022-11-15T17:41:12;10.30;99.90
21298;DHT22;10808;48.010;11.326;2022-11-15T17:43:39;10.20;99.90
21298;DHT22;10808;48.010;11.326;2022-11-15T17:46:08;10.20;99.90
21298;DHT22;10808;48.010;11.326;2022-11-15T17:48:36;10.20;99.90
21298;DHT22;10808;48.010;11.326;2022-11-15T17:51:07;10.10;99.90
21298;DHT22;10808;48.010;11.326;2022-11-15T17:53:37;10.10;99.90